sensor_id;sensor_type;location;lat;lon;timestamp;temperature;humidity
13569;DHT22;6856;51.460;7.158;2022-11-23T00:02:03;11.10;67.00
13569;DHT22;6856;51.460;7.158;2022-11-23T00:04:45;11.10;67.20
13569;DHT22;6856;51.460;7.158;2022-11-23T00:07:24;11.10;65.70
13569;DHT22;6856;51.460;7.158;2022-11-23T00:10:20;11.10;67.50
13569;DHT22;6856;51.460;7.158;2022-11-23T00:13:04;11.20;67.30
13569;DHT22;6856;51.460;7.158;2022-11-23T00:15:54;11.10;67.10
13569;DHT22;6856;51.460;7.158;2022-11-23T00:18:32;10.90;67.50
13569;DHT22;6856;51.460;7.158;2022-11-23T00:21:17;11.10;66.80
13569;DHT22;6856;51.460;7.158;2022-11-23T00:23:53;11.10;67.30
13569;DHT22;6856;51.460;7.158;2022-11-23T00:26:32;11.10;66.40
13569;DHT22;6856;51.460;7.158;2022-11-23T00:32:16;11.10;67.80
13569;DHT22;6856;51.460;7.158;2022-11-23T00:35:02;11.20;66.50
13569;DHT22;6856;51.460;7.158;2022-11-23T00:37:40;11.20;67.20
13569;DHT22;6856;51.460;7.158;2022-11-23T00:40:18;11.20;66.30
13569;DHT22;6856;51.460;7.158;2022-11-23T00:42:57;11.00;66.60
13569;DHT22;6856;51.460;7.158;2022-11-23T00:45:37;11.20;66.50
13569;DHT22;6856;51.460;7.158;2022-11-23T00:48:35;11.20;65.90
13569;DHT22;6856;51.460;7.158;2022-11-23T00:51:17;11.10;67.30
13569;DHT22;6856;51.460;7.158;2022-11-23T00:54:06;11.30;66.80
13569;DHT22;6856;51.460;7.158;2022-11-23T00:56:58;11.30;65.60
13569;DHT22;6856;51.460;7.158;2022-11-23T01:00:01;11.30;66.10
13569;DHT22;6856;51.460;7.158;2022-11-23T01:02:55;11.30;66.30
13569;DHT22;6856;51.460;7.158;2022-11-23T01:05:43;11.40;66.90
13569;DHT22;6856;51.460;7.158;2022-11-23T01:08:20;11.30;65.60
13569;DHT22;6856;51.460;7.158;2022-11-23T01:10:58;11.50;67.60
13569;DHT22;6856;51.460;7.158;2022-11-23T01:13:37;11.40;66.90
13569;DHT22;6856;51.460;7.158;2022-11-23T01:16:18;11.40;66.40
13569;DHT22;6856;51.460;7.158;2022-11-23T01:19:02;11.40;65.60
13569;DHT22;6856;51.460;7.158;2022-11-23T01:21:57;11.40;65.20
13569;DHT22;6856;51.460;7.158;2022-11-23T01:24:41;11.20;66.60
13569;DHT22;6856;51.460;7.158;2022-11-23T01:27:26;11.60;65.70
13569;DHT22;6856;51.460;7.158;2022-11-23T01:30:13;11.30;65.40
13569;DHT22;6856;51.460;7.158;2022-11-23T01:36:36;11.30;66.90
13569;DHT22;6856;51.460;7.158;2022-11-23T01:39:18;11.60;65.60
13569;DHT22;6856;51.460;7.158;2022-11-23T01:41:56;11.30;65.40
13569;DHT22;6856;51.460;7.158;2022-11-23T01:44:37;11.50;65.80
13569;DHT22;6856;51.460;7.158;2022-11-23T01:47:48;11.50;65.80
13569;DHT22;6856;51.460;7.158;2022-11-23T01:50:34;11.50;65.50
13569;DHT22;6856;51.460;7.158;2022-11-23T01:53:30;11.50;65.90
13569;DHT22;6856;51.460;7.158;2022-11-23T01:56:29;11.50;67.10
13569;DHT22;6856;51.460;7.158;2022-11-23T01:59:28;11.50;67.30
13569;DHT22;6856;51.460;7.158;2022-11-23T02:03:01;11.50;66.70
13569;DHT22;6856;51.460;7.158;2022-11-23T02:06:00;11.50;67.00
13569;DHT22;6856;51.460;7.158;2022-11-23T02:08:56;11.50;66.10
13569;DHT22;6856;51.460;7.158;2022-11-23T02:12:05;11.50;66.90
13569;DHT22;6856;51.460;7.158;2022-11-23T02:15:01;11.30;66.60
13569;DHT22;6856;51.460;7.158;2022-11-23T02:18:03;11.30;66.00
13569;DHT22;6856;51.460;7.158;2022-11-23T02:21:29;11.50;66.30
13569;DHT22;6856;51.460;7.158;2022-11-23T02:24:48;11.40;66.00
13569;DHT22;6856;51.460;7.158;2022-11-23T02:27:38;11.30;67.20
13569;DHT22;6856;51.460;7.158;2022-11-23T02:30:43;11.50;66.00
13569;DHT22;6856;51.460;7.158;2022-11-23T02:33:55;11.50;66.40
13569;DHT22;6856;51.460;7.158;2022-11-23T02:37:07;11.60;65.90
13569;DHT22;6856;51.460;7.158;2022-11-23T02:39:51;11.50;65.50
13569;DHT22;6856;51.460;7.158;2022-11-23T02:42:30;11.60;66.20
13569;DHT22;6856;51.460;7.158;2022-11-23T02:46:09;11.60;66.30
13569;DHT22;6856;51.460;7.158;2022-11-23T02:48:27;11.60;66.70
13569;DHT22;6856;51.460;7.158;2022-11-23T02:51:03;11.60;66.40
13569;DHT22;6856;51.460;7.158;2022-11-23T02:53:46;11.40;65.90
13569;DHT22;6856;51.460;7.158;2022-11-23T02:56:23;11.60;65.60
13569;DHT22;6856;51.460;7.158;2022-11-23T02:59:02;11.60;65.70
13569;DHT22;6856;51.460;7.158;2022-11-23T03:02:03;11.60;65.80
13569;DHT22;6856;51.460;7.158;2022-11-23T03:05:18;11.70;66.70
13569;DHT22;6856;51.460;7.158;2022-11-23T03:09:02;11.50;66.60
13569;DHT22;6856;51.460;7.158;2022-11-23T03:12:39;11.70;66.90
13569;DHT22;6856;51.460;7.158;2022-11-23T03:15:17;11.70;65.50
13569;DHT22;6856;51.460;7.158;2022-11-23T03:18:15;11.70;65.90
13569;DHT22;6856;51.460;7.158;2022-11-23T03:21:03;11.70;65.40
13569;DHT22;6856;51.460;7.158;2022-11-23T03:23:46;11.70;65.70
13569;DHT22;6856;51.460;7.158;2022-11-23T03:26:25;11.70;65.30
13569;DHT22;6856;51.460;7.158;2022-11-23T03:29:29;11.70;66.10
13569;DHT22;6856;51.460;7.158;2022-11-23T03:32:11;11.80;66.90
13569;DHT22;6856;51.460;7.158;2022-11-23T03:38:24;11.80;67.00
13569;DHT22;6856;51.460;7.158;2022-11-23T03:41:10;11.90;65.80
13569;DHT22;6856;51.460;7.158;2022-11-23T03:43:51;11.70;66.70
13569;DHT22;6856;51.460;7.158;2022-11-23T03:46:41;11.70;65.50
13569;DHT22;6856;51.460;7.158;2022-11-23T03:53:24;11.70;67.40
13569;DHT22;6856;51.460;7.158;2022-11-23T03:56:06;11.70;65.80
13569;DHT22;6856;51.460;7.158;2022-11-23T03:59:20;11.60;66.20
13569;DHT22;6856;51.460;7.158;2022-11-23T04:02:13;11.60;66.80
13569;DHT22;6856;51.460;7.158;2022-11-23T04:04:58;11.60;67.50
13569;DHT22;6856;51.460;7.158;2022-11-23T04:07:51;11.60;66.50
13569;DHT22;6856;51.460;7.158;2022-11-23T04:14:12;11.50;67.60
13569;DHT22;6856;51.460;7.158;2022-11-23T04:21:25;11.50;68.20
13569;DHT22;6856;51.460;7.158;2022-11-23T04:24:03;11.50;67.40
13569;DHT22;6856;51.460;7.158;2022-11-23T04:26:52;11.50;67.70
13569;DHT22;6856;51.460;7.158;2022-11-23T04:29:35;11.50;67.50
13569;DHT22;6856;51.460;7.158;2022-11-23T04:32:31;11.30;67.00
13569;DHT22;6856;51.460;7.158;2022-11-23T04:35:16;11.40;67.20
13569;DHT22;6856;51.460;7.158;2022-11-23T04:37:57;11.40;67.10
13569;DHT22;6856;51.460;7.158;2022-11-23T04:41:02;11.40;67.30
13569;DHT22;6856;51.460;7.158;2022-11-23T04:43:58;11.40;67.20
13569;DHT22;6856;51.460;7.158;2022-11-23T04:47:03;11.40;67.20
13569;DHT22;6856;51.460;7.158;2022-11-23T04:50:09;11.40;68.70
13569;DHT22;6856;51.460;7.158;2022-11-23T04:52:55;11.40;67.30
13569;DHT22;6856;51.460;7.158;2022-11-23T04:55:43;11.40;67.50
13569;DHT22;6856;51.460;7.158;2022-11-23T04:58:35;11.20;68.40
13569;DHT22;6856;51.460;7.158;2022-11-23T05:01:37;11.40;67.00
13569;DHT22;6856;51.460;7.158;2022-11-23T05:04:20;11.40;66.90
13569;DHT22;6856;51.460;7.158;2022-11-23T05:07:29;11.40;67.20
13569;DHT22;6856;51.460;7.158;2022-11-23T05:10:26;11.40;68.10
13569;DHT22;6856;51.460;7.158;2022-11-23T05:13:06;11.40;68.10
13569;DHT22;6856;51.460;7.158;2022-11-23T05:15:50;11.30;68.00
13569;DHT22;6856;51.460;7.158;2022-11-23T05:18:32;11.30;67.80
13569;DHT22;6856;51.460;7.158;2022-11-23T05:21:12;11.40;68.40
13569;DHT22;6856;51.460;7.158;2022-11-23T05:23:50;11.40;68.00
13569;DHT22;6856;51.460;7.158;2022-11-23T05:26:31;11.40;67.60
13569;DHT22;6856;51.460;7.158;2022-11-23T05:29:39;11.40;67.50
13569;DHT22;6856;51.460;7.158;2022-11-23T05:32:32;11.40;69.00
13569;DHT22;6856;51.460;7.158;2022-11-23T05:35:15;11.40;67.50
13569;DHT22;6856;51.460;7.158;2022-11-23T05:38:19;11.40;67.40
13569;DHT22;6856;51.460;7.158;2022-11-23T05:41:07;11.40;68.30
13569;DHT22;6856;51.460;7.158;2022-11-23T05:44:04;11.40;67.50
13569;DHT22;6856;51.460;7.158;2022-11-23T05:46:49;11.20;67.30
13569;DHT22;6856;51.460;7.158;2022-11-23T05:49:29;11.40;68.20
13569;DHT22;6856;51.460;7.158;2022-11-23T05:52:06;11.40;68.50
13569;DHT22;6856;51.460;7.158;2022-11-23T05:55:19;11.40;67.20
13569;DHT22;6856;51.460;7.158;2022-11-23T05:57:56;11.30;68.90
13569;DHT22;6856;51.460;7.158;2022-11-23T06:00:38;11.40;67.60
13569;DHT22;6856;51.460;7.158;2022-11-23T06:04:04;11.30;67.90
13569;DHT22;6856;51.460;7.158;2022-11-23T06:06:48;11.30;67.80
13569;DHT22;6856;51.460;7.158;2022-11-23T06:09:45;11.20;67.70
13569;DHT22;6856;51.460;7.158;2022-11-23T06:12:29;11.40;67.40
13569;DHT22;6856;51.460;7.158;2022-11-23T06:15:18;11.40;66.70
13569;DHT22;6856;51.460;7.158;2022-11-23T06:18:27;11.30;68.10
13569;DHT22;6856;51.460;7.158;2022-11-23T06:21:12;11.30;68.50
13569;DHT22;6856;51.460;7.158;2022-11-23T06:24:00;11.30;66.90
13569;DHT22;6856;51.460;7.158;2022-11-23T06:26:53;11.20;67.90
13569;DHT22;6856;51.460;7.158;2022-11-23T06:29:43;11.30;67.80
13569;DHT22;6856;51.460;7.158;2022-11-23T06:32:19;11.30;66.90
13569;DHT22;6856;51.460;7.158;2022-11-23T06:34:58;11.30;66.80
13569;DHT22;6856;51.460;7.158;2022-11-23T06:37:37;11.40;68.40
13569;DHT22;6856;51.460;7.158;2022-11-23T06:40:21;11.30;67.80
13569;DHT22;6856;51.460;7.158;2022-11-23T06:43:05;11.30;67.40
13569;DHT22;6856;51.460;7.158;2022-11-23T06:46:19;11.30;66.80
13569;DHT22;6856;51.460;7.158;2022-11-23T06:49:15;11.30;68.40
13569;DHT22;6856;51.460;7.158;2022-11-23T06:52:10;11.30;67.40
13569;DHT22;6856;51.460;7.158;2022-11-23T06:54:55;11.50;67.60
13569;DHT22;6856;51.460;7.158;2022-11-23T06:57:45;11.30;67.60
13569;DHT22;6856;51.460;7.158;2022-11-23T07:00:32;11.10;68.40
13569;DHT22;6856;51.460;7.158;2022-11-23T07:03:21;11.30;67.30
13569;DHT22;6856;51.460;7.158;2022-11-23T07:06:17;11.30;67.60
13569;DHT22;6856;51.460;7.158;2022-11-23T07:08:59;11.30;68.60
13569;DHT22;6856;51.460;7.158;2022-11-23T07:11:42;11.30;68.30
13569;DHT22;6856;51.460;7.158;2022-11-23T07:14:24;11.30;67.20
13569;DHT22;6856;51.460;7.158;2022-11-23T07:17:04;11.20;67.50
13569;DHT22;6856;51.460;7.158;2022-11-23T07:19:41;11.30;66.90
13569;DHT22;6856;51.460;7.158;2022-11-23T07:22:42;11.30;68.20
13569;DHT22;6856;51.460;7.158;2022-11-23T07:26:07;11.20;68.20
13569;DHT22;6856;51.460;7.158;2022-11-23T07:29:05;11.20;68.40
13569;DHT22;6856;51.460;7.158;2022-11-23T07:31:51;11.20;67.30
13569;DHT22;6856;51.460;7.158;2022-11-23T07:34:56;11.40;67.90
13569;DHT22;6856;51.460;7.158;2022-11-23T07:37:54;11.20;67.70
13569;DHT22;6856;51.460;7.158;2022-11-23T07:40:40;11.20;66.70
13569;DHT22;6856;51.460;7.158;2022-11-23T07:43:22;11.40;68.50
13569;DHT22;6856;51.460;7.158;2022-11-23T07:46:05;11.40;68.30
13569;DHT22;6856;51.460;7.158;2022-11-23T07:48:40;11.20;67.40
13569;DHT22;6856;51.460;7.158;2022-11-23T07:51:47;11.20;67.30
13569;DHT22;6856;51.460;7.158;2022-11-23T07:54:35;11.30;68.40
13569;DHT22;6856;51.460;7.158;2022-11-23T07:57:15;11.20;67.20
13569;DHT22;6856;51.460;7.158;2022-11-23T07:59:57;11.20;66.90
13569;DHT22;6856;51.460;7.158;2022-11-23T08:02:49;11.30;67.00
13569;DHT22;6856;51.460;7.158;2022-11-23T08:06:00;11.30;67.50
13569;DHT22;6856;51.460;7.158;2022-11-23T08:12:56;11.30;67.90
13569;DHT22;6856;51.460;7.158;2022-11-23T08:19:41;11.40;67.70
13569;DHT22;6856;51.460;7.158;2022-11-23T08:22:36;11.40;65.20
13569;DHT22;6856;51.460;7.158;2022-11-23T08:25:15;11.50;66.60
13569;DHT22;6856;51.460;7.158;2022-11-23T08:28:05;11.40;66.30
13569;DHT22;6856;51.460;7.158;2022-11-23T08:31:09;11.20;66.90
13569;DHT22;6856;51.460;7.158;2022-11-23T08:33:47;11.50;65.60
13569;DHT22;6856;51.460;7.158;2022-11-23T08:36:34;11.50;65.50
13569;DHT22;6856;51.460;7.158;2022-11-23T08:39:12;11.50;66.00
13569;DHT22;6856;51.460;7.158;2022-11-23T08:42:04;11.60;65.40
13569;DHT22;6856;51.460;7.158;2022-11-23T08:44:57;11.60;65.40
13569;DHT22;6856;51.460;7.158;2022-11-23T08:47:42;11.60;66.50
13569;DHT22;6856;51.460;7.158;2022-11-23T08:50:29;11.70;65.50
13569;DHT22;6856;51.460;7.158;2022-11-23T08:53:06;11.70;65.00
13569;DHT22;6856;51.460;7.158;2022-11-23T08:55:44;11.90;65.70
13569;DHT22;6856;51.460;7.158;2022-11-23T08:58:25;11.80;65.50
13569;DHT22;6856;51.460;7.158;2022-11-23T09:01:06;11.80;65.50
13569;DHT22;6856;51.460;7.158;2022-11-23T09:03:44;11.90;64.90
13569;DHT22;6856;51.460;7.158;2022-11-23T09:06:22;11.90;64.40
13569;DHT22;6856;51.460;7.158;2022-11-23T09:09:03;11.90;64.50
13569;DHT22;6856;51.460;7.158;2022-11-23T09:12:10;11.90;63.70
13569;DHT22;6856;51.460;7.158;2022-11-23T09:14:48;11.90;62.90
13569;DHT22;6856;51.460;7.158;2022-11-23T09:17:32;11.90;64.30
13569;DHT22;6856;51.460;7.158;2022-11-23T09:20:28;11.90;63.90
13569;DHT22;6856;51.460;7.158;2022-11-23T09:23:05;12.00;64.40
13569;DHT22;6856;51.460;7.158;2022-11-23T09:25:50;11.80;63.60
13569;DHT22;6856;51.460;7.158;2022-11-23T09:28:27;12.00;63.90
13569;DHT22;6856;51.460;7.158;2022-11-23T09:31:04;12.00;63.40
13569;DHT22;6856;51.460;7.158;2022-11-23T09:33:44;12.10;63.30
13569;DHT22;6856;51.460;7.158;2022-11-23T09:36:22;11.90;62.00
13569;DHT22;6856;51.460;7.158;2022-11-23T09:39:06;12.10;62.60
13569;DHT22;6856;51.460;7.158;2022-11-23T09:42:14;12.10;63.80
13569;DHT22;6856;51.460;7.158;2022-11-23T09:45:32;12.20;63.40
13569;DHT22;6856;51.460;7.158;2022-11-23T09:48:34;12.20;63.30
13569;DHT22;6856;51.460;7.158;2022-11-23T09:51:49;12.30;63.00
13569;DHT22;6856;51.460;7.158;2022-11-23T09:54:39;12.30;63.00
13569;DHT22;6856;51.460;7.158;2022-11-23T09:57:20;12.40;63.00
13569;DHT22;6856;51.460;7.158;2022-11-23T10:00:09;12.40;62.00
13569;DHT22;6856;51.460;7.158;2022-11-23T10:02:52;12.50;62.60
13569;DHT22;6856;51.460;7.158;2022-11-23T10:05:34;12.50;62.10
13569;DHT22;6856;51.460;7.158;2022-11-23T10:08:20;12.70;61.70
13569;DHT22;6856;51.460;7.158;2022-11-23T10:11:30;12.60;61.70
13569;DHT22;6856;51.460;7.158;2022-11-23T10:14:27;12.60;61.90
13569;DHT22;6856;51.460;7.158;2022-11-23T10:17:23;12.70;62.20
13569;DHT22;6856;51.460;7.158;2022-11-23T10:20:46;12.60;61.90
13569;DHT22;6856;51.460;7.158;2022-11-23T10:23:44;12.80;61.70
13569;DHT22;6856;51.460;7.158;2022-11-23T10:26:30;12.70;61.40
13569;DHT22;6856;51.460;7.158;2022-11-23T10:29:12;12.90;61.40
13569;DHT22;6856;51.460;7.158;2022-11-23T10:31:50;12.90;60.40
13569;DHT22;6856;51.460;7.158;2022-11-23T10:34:47;13.00;60.50
13569;DHT22;6856;51.460;7.158;2022-11-23T10:41:08;13.00;60.40
13569;DHT22;6856;51.460;7.158;2022-11-23T10:47:38;13.10;60.30
13569;DHT22;6856;51.460;7.158;2022-11-23T10:51:18;13.20;59.40
13569;DHT22;6856;51.460;7.158;2022-11-23T10:54:24;13.30;59.30
13569;DHT22;6856;51.460;7.158;2022-11-23T10:57:21;13.40;59.10
13569;DHT22;6856;51.460;7.158;2022-11-23T11:00:38;13.30;58.40
13569;DHT22;6856;51.460;7.158;2022-11-23T11:03:23;13.30;58.80
13569;DHT22;6856;51.460;7.158;2022-11-23T11:06:00;13.40;59.10
13569;DHT22;6856;51.460;7.158;2022-11-23T11:08:49;13.40;59.40
13569;DHT22;6856;51.460;7.158;2022-11-23T11:11:33;13.40;58.00
13569;DHT22;6856;51.460;7.158;2022-11-23T11:14:21;13.40;57.70
13569;DHT22;6856;51.460;7.158;2022-11-23T11:17:24;13.40;57.90
13569;DHT22;6856;51.460;7.158;2022-11-23T11:20:27;13.50;57.70
13569;DHT22;6856;51.460;7.158;2022-11-23T11:26:22;13.50;57.60
13569;DHT22;6856;51.460;7.158;2022-11-23T11:29:28;13.50;57.30
13569;DHT22;6856;51.460;7.158;2022-11-23T11:32:12;13.50;57.60
13569;DHT22;6856;51.460;7.158;2022-11-23T11:35:28;13.50;57.50
13569;DHT22;6856;51.460;7.158;2022-11-23T11:42:17;13.60;57.60
13569;DHT22;6856;51.460;7.158;2022-11-23T11:49:06;13.60;57.10
13569;DHT22;6856;51.460;7.158;2022-11-23T11:52:20;13.60;56.80
13569;DHT22;6856;51.460;7.158;2022-11-23T11:55:11;13.70;56.30
13569;DHT22;6856;51.460;7.158;2022-11-23T11:58:07;13.70;56.90
13569;DHT22;6856;51.460;7.158;2022-11-23T12:01:31;13.70;56.70
13569;DHT22;6856;51.460;7.158;2022-11-23T12:04:39;13.70;56.90
13569;DHT22;6856;51.460;7.158;2022-11-23T12:07:43;13.70;57.30
13569;DHT22;6856;51.460;7.158;2022-11-23T12:10:35;13.80;57.10
13569;DHT22;6856;51.460;7.158;2022-11-23T12:13:24;13.80;57.70
13569;DHT22;6856;51.460;7.158;2022-11-23T12:19:48;13.90;57.40
13569;DHT22;6856;51.460;7.158;2022-11-23T12:22:48;14.00;57.80
13569;DHT22;6856;51.460;7.158;2022-11-23T12:25:33;14.00;57.20
13569;DHT22;6856;51.460;7.158;2022-11-23T12:28:29;14.00;57.00
13569;DHT22;6856;51.460;7.158;2022-11-23T12:31:28;13.90;57.00
13569;DHT22;6856;51.460;7.158;2022-11-23T12:34:55;13.90;57.00
13569;DHT22;6856;51.460;7.158;2022-11-23T12:37:58;13.70;56.80
13569;DHT22;6856;51.460;7.158;2022-11-23T12:40:58;13.90;57.00
13569;DHT22;6856;51.460;7.158;2022-11-23T12:44:35;13.90;57.00
13569;DHT22;6856;51.460;7.158;2022-11-23T12:47:44;13.70;56.60
13569;DHT22;6856;51.460;7.158;2022-11-23T12:50:32;13.90;56.80
13569;DHT22;6856;51.460;7.158;2022-11-23T12:53:28;13.90;56.50
13569;DHT22;6856;51.460;7.158;2022-11-23T12:56:23;13.90;56.50
13569;DHT22;6856;51.460;7.158;2022-11-23T12:59:18;13.60;56.30
13569;DHT22;6856;51.460;7.158;2022-11-23T13:02:01;13.80;56.20
13569;DHT22;6856;51.460;7.158;2022-11-23T13:05:30;13.80;56.10
13569;DHT22;6856;51.460;7.158;2022-11-23T13:08:55;13.70;56.40
13569;DHT22;6856;51.460;7.158;2022-11-23T13:12:06;13.70;56.70
13569;DHT22;6856;51.460;7.158;2022-11-23T13:15:09;13.90;56.50
13569;DHT22;6856;51.460;7.158;2022-11-23T13:18:07;13.80;56.40
13569;DHT22;6856;51.460;7.158;2022-11-23T13:21:13;13.80;56.30
13569;DHT22;6856;51.460;7.158;2022-11-23T13:24:01;13.80;56.00
13569;DHT22;6856;51.460;7.158;2022-11-23T13:26:39;13.80;55.80
13569;DHT22;6856;51.460;7.158;2022-11-23T13:29:45;13.90;56.20
13569;DHT22;6856;51.460;7.158;2022-11-23T13:36:11;13.60;55.90
13569;DHT22;6856;51.460;7.158;2022-11-23T13:39:59;13.80;55.90
13569;DHT22;6856;51.460;7.158;2022-11-23T13:42:37;13.70;55.70
13569;DHT22;6856;51.460;7.158;2022-11-23T13:45:28;13.80;55.20
13569;DHT22;6856;51.460;7.158;2022-11-23T13:48:49;13.70;55.80
13569;DHT22;6856;51.460;7.158;2022-11-23T13:59:45;13.50;55.30
13569;DHT22;6856;51.460;7.158;2022-11-23T14:02:46;13.40;54.80
13569;DHT22;6856;51.460;7.158;2022-11-23T14:06:12;13.40;55.60
13569;DHT22;6856;51.460;7.158;2022-11-23T14:09:11;13.30;56.10
13569;DHT22;6856;51.460;7.158;2022-11-23T14:12:46;13.30;55.60
13569;DHT22;6856;51.460;7.158;2022-11-23T14:15:53;13.20;55.70
13569;DHT22;6856;51.460;7.158;2022-11-23T14:19:00;13.20;55.20
13569;DHT22;6856;51.460;7.158;2022-11-23T14:22:05;12.90;55.50
13569;DHT22;6856;51.460;7.158;2022-11-23T14:25:30;13.10;55.80
13569;DHT22;6856;51.460;7.158;2022-11-23T14:28:38;13.00;56.00
13569;DHT22;6856;51.460;7.158;2022-11-23T14:31:36;13.00;55.80
13569;DHT22;6856;51.460;7.158;2022-11-23T14:34:32;12.80;56.10
13569;DHT22;6856;51.460;7.158;2022-11-23T14:38:00;12.90;55.90
13569;DHT22;6856;51.460;7.158;2022-11-23T14:41:09;12.90;56.90
13569;DHT22;6856;51.460;7.158;2022-11-23T14:43:54;12.90;56.20
13569;DHT22;6856;51.460;7.158;2022-11-23T14:47:14;12.80;56.10
13569;DHT22;6856;51.460;7.158;2022-11-23T14:50:02;12.80;56.20
13569;DHT22;6856;51.460;7.158;2022-11-23T14:52:57;12.80;56.40
13569;DHT22;6856;51.460;7.158;2022-11-23T14:56:03;12.70;55.60
13569;DHT22;6856;51.460;7.158;2022-11-23T14:59:22;12.70;56.30
13569;DHT22;6856;51.460;7.158;2022-11-23T15:02:05;12.70;56.00
13569;DHT22;6856;51.460;7.158;2022-11-23T15:05:02;12.60;56.20
13569;DHT22;6856;51.460;7.158;2022-11-23T15:10:58;12.60;56.30
13569;DHT22;6856;51.460;7.158;2022-11-23T15:13:48;12.60;56.60
13569;DHT22;6856;51.460;7.158;2022-11-23T15:16:46;12.50;55.60
13569;DHT22;6856;51.460;7.158;2022-11-23T15:19:38;12.50;55.20
13569;DHT22;6856;51.460;7.158;2022-11-23T15:22:18;12.50;56.80
13569;DHT22;6856;51.460;7.158;2022-11-23T15:25:04;12.30;56.50
13569;DHT22;6856;51.460;7.158;2022-11-23T15:28:26;12.40;56.30
13569;DHT22;6856;51.460;7.158;2022-11-23T15:31:38;12.40;56.40
13569;DHT22;6856;51.460;7.158;2022-11-23T15:34:41;12.40;56.40
13569;DHT22;6856;51.460;7.158;2022-11-23T15:37:17;12.40;56.70
13569;DHT22;6856;51.460;7.158;2022-11-23T15:39:54;12.40;56.00
13569;DHT22;6856;51.460;7.158;2022-11-23T15:42:41;12.40;56.00
13569;DHT22;6856;51.460;7.158;2022-11-23T15:45:36;12.40;56.20
13569;DHT22;6856;51.460;7.158;2022-11-23T15:48:35;12.40;56.90
13569;DHT22;6856;51.460;7.158;2022-11-23T15:51:26;12.40;56.10
13569;DHT22;6856;51.460;7.158;2022-11-23T15:54:52;12.40;56.30
13569;DHT22;6856;51.460;7.158;2022-11-23T15:57:33;12.60;56.30
13569;DHT22;6856;51.460;7.158;2022-11-23T16:00:22;12.40;56.10
13569;DHT22;6856;51.460;7.158;2022-11-23T16:06:37;12.40;56.50
13569;DHT22;6856;51.460;7.158;2022-11-23T16:09:39;12.60;56.50
13569;DHT22;6856;51.460;7.158;2022-11-23T16:12:32;12.50;56.60
13569;DHT22;6856;51.460;7.158;2022-11-23T16:22:39;12.20;56.50
13569;DHT22;6856;51.460;7.158;2022-11-23T16:25:41;12.40;57.20
13569;DHT22;6856;51.460;7.158;2022-11-23T16:28:49;12.40;56.50
13569;DHT22;6856;51.460;7.158;2022-11-23T16:31:35;12.40;56.90
13569;DHT22;6856;51.460;7.158;2022-11-23T16:34:46;12.50;56.50
13569;DHT22;6856;51.460;7.158;2022-11-23T16:37:47;12.40;57.60
13569;DHT22;6856;51.460;7.158;2022-11-23T16:40:31;12.30;57.10
13569;DHT22;6856;51.460;7.158;2022-11-23T16:43:23;12.30;58.10
13569;DHT22;6856;51.460;7.158;2022-11-23T16:45:57;12.30;56.80
13569;DHT22;6856;51.460;7.158;2022-11-23T16:48:41;12.20;58.30
13569;DHT22;6856;51.460;7.158;2022-11-23T16:51:26;12.30;57.90
13569;DHT22;6856;51.460;7.158;2022-11-23T16:54:26;12.00;58.30
13569;DHT22;6856;51.460;7.158;2022-11-23T16:57:49;12.20;58.70
13569;DHT22;6856;51.460;7.158;2022-11-23T17:00:45;12.10;59.10
13569;DHT22;6856;51.460;7.158;2022-11-23T17:03:48;12.00;59.40
13569;DHT22;6856;51.460;7.158;2022-11-23T17:06:28;12.00;58.70
13569;DHT22;6856;51.460;7.158;2022-11-23T17:09:36;12.00;58.90
13569;DHT22;6856;51.460;7.158;2022-11-23T17:12:19;11.90;59.10
13569;DHT22;6856;51.460;7.158;2022-11-23T17:15:02;11.70;59.60
13569;DHT22;6856;51.460;7.158;2022-11-23T17:17:52;11.80;59.80
13569;DHT22;6856;51.460;7.158;2022-11-23T17:20:52;11.80;60.40
13569;DHT22;6856;51.460;7.158;2022-11-23T17:23:37;11.80;59.50
13569;DHT22;6856;51.460;7.158;2022-11-23T17:26:49;11.70;59.80
13569;DHT22;6856;51.460;7.158;2022-11-23T17:29:55;11.70;61.30
13569;DHT22;6856;51.460;7.158;2022-11-23T17:32:39;11.60;60.90
13569;DHT22;6856;51.460;7.158;2022-11-23T17:35:29;11.60;60.00
13569;DHT22;6856;51.460;7.158;2022-11-23T17:38:12;11.60;60.40
13569;DHT22;6856;51.460;7.158;2022-11-23T17:41:09;11.50;60.50
13569;DHT22;6856;51.460;7.158;2022-11-23T17:43:49;11.30;60.40
13569;DHT22;6856;51.460;7.158;2022-11-23T17:46:28;11.50;60.50
13569;DHT22;6856;51.460;7.158;2022-11-23T17:49:31;11.50;59.80
13569;DHT22;6856;51.460;7.158;2022-11-23T17:58:00;11.40;62.50
13569;DHT22;6856;51.460;7.158;2022-11-23T18:00:50;11.40;62.10
13569;DHT22;6856;51.460;7.158;2022-11-23T18:03:32;11.40;60.60
13569;DHT22;6856;51.460;7.158;2022-11-23T18:17:13;11.00;61.50
13569;DHT22;6856;51.460;7.158;2022-11-23T18:19:56;11.20;62.90
13569;DHT22;6856;51.460;7.158;2022-11-23T18:23:14;11.20;62.40
13569;DHT22;6856;51.460;7.158;2022-11-23T18:26:15;11.20;61.40
13569;DHT22;6856;51.460;7.158;2022-11-23T18:29:37;11.20;62.10
13569;DHT22;6856;51.460;7.158;2022-11-23T18:32:36;11.10;61.30
13569;DHT22;6856;51.460;7.158;2022-11-23T18:35:39;11.10;62.30
13569;DHT22;6856;51.460;7.158;2022-11-23T18:38:43;11.20;62.40
13569;DHT22;6856;51.460;7.158;2022-11-23T18:41:26;11.10;61.90
13569;DHT22;6856;51.460;7.158;2022-11-23T18:44:58;11.00;62.70
13569;DHT22;6856;51.460;7.158;2022-11-23T18:48:16;11.00;61.60
13569;DHT22;6856;51.460;7.158;2022-11-23T18:51:13;10.80;62.80
13569;DHT22;6856;51.460;7.158;2022-11-23T18:54:06;11.00;61.80
13569;DHT22;6856;51.460;7.158;2022-11-23T18:56:54;10.90;61.60
13569;DHT22;6856;51.460;7.158;2022-11-23T18:59:57;11.00;63.40
13569;DHT22;6856;51.460;7.158;2022-11-23T19:03:12;10.90;61.50
13569;DHT22;6856;51.460;7.158;2022-11-23T19:06:30;10.70;63.30
13569;DHT22;6856;51.460;7.158;2022-11-23T19:09:43;10.90;63.40
13569;DHT22;6856;51.460;7.158;2022-11-23T19:12:24;10.90;62.80
13569;DHT22;6856;51.460;7.158;2022-11-23T19:15:14;10.90;62.80
13569;DHT22;6856;51.460;7.158;2022-11-23T19:18:07;11.10;61.90
13569;DHT22;6856;51.460;7.158;2022-11-23T19:21:16;10.90;61.30
13569;DHT22;6856;51.460;7.158;2022-11-23T19:23:54;10.70;62.50
13569;DHT22;6856;51.460;7.158;2022-11-23T19:26:38;10.90;62.90
13569;DHT22;6856;51.460;7.158;2022-11-23T19:30:24;10.90;62.80
13569;DHT22;6856;51.460;7.158;2022-11-23T19:33:12;10.90;64.20
13569;DHT22;6856;51.460;7.158;2022-11-23T19:40:19;10.90;64.30
13569;DHT22;6856;51.460;7.158;2022-11-23T19:47:48;10.90;64.90
13569;DHT22;6856;51.460;7.158;2022-11-23T19:50:25;10.90;64.30
13569;DHT22;6856;51.460;7.158;2022-11-23T19:53:03;10.90;62.50
13569;DHT22;6856;51.460;7.158;2022-11-23T19:55:50;10.90;63.50
13569;DHT22;6856;51.460;7.158;2022-11-23T19:58:29;11.00;63.10
13569;DHT22;6856;51.460;7.158;2022-11-23T20:04:32;11.00;65.40
13569;DHT22;6856;51.460;7.158;2022-11-23T20:07:49;11.00;62.90
13569;DHT22;6856;51.460;7.158;2022-11-23T20:10:57;11.00;63.60
13569;DHT22;6856;51.460;7.158;2022-11-23T20:13:53;11.00;65.20
13569;DHT22;6856;51.460;7.158;2022-11-23T20:17:00;11.00;64.30
13569;DHT22;6856;51.460;7.158;2022-11-23T20:19:42;11.10;65.40
13569;DHT22;6856;51.460;7.158;2022-11-23T20:22:58;11.00;63.20